createdAt,value
2017-01-23T00:00:55.315Z,99.99
2017-01-23T00:01:55.289Z,99.99
2017-01-23T00:02:55.259Z,99.99
2017-01-23T00:03:55.234Z,99.99
2017-01-23T00:04:55.205Z,99.99
2017-01-23T00:05:55.178Z,99.99
2017-01-23T00:06:55.155Z,99.99
2017-01-23T00:07:55.130Z,99.99
2017-01-23T00:08:55.126Z,99.99
2017-01-23T00:09:55.069Z,99.99
2017-01-23T00:10:55.047Z,99.99
2017-01-23T00:11:55.021Z,99.99
2017-01-23T00:12:54.992Z,99.99
2017-01-23T00:13:54.965Z,99.99
2017-01-23T00:14:55.334Z,99.99
2017-01-23T00:15:54.918Z,99.99
2017-01-23T00:16:54.890Z,99.79
2017-01-23T00:17:54.861Z,99.6
2017-01-23T00:18:54.845Z,99.69
2017-01-23T00:19:54.817Z,99.6
2017-01-23T00:20:54.784Z,99.6
2017-01-23T00:21:54.753Z,99.6
2017-01-23T00:22:54.738Z,99.41
2017-01-23T00:23:54.698Z,99.6
2017-01-23T00:24:54.671Z,99.51
2017-01-23T00:25:54.661Z,98.65
2017-01-23T00:26:54.623Z,98.84
2017-01-23T00:27:54.592Z,98.65
2017-01-23T00:28:54.567Z,98.65
2017-01-23T00:29:54.541Z,99.88
2017-01-23T00:30:54.513Z,99.69
2017-01-23T00:31:54.487Z,99.13
2017-01-23T00:32:54.460Z,99.51
2017-01-23T00:33:54.431Z,99.22
2017-01-23T00:34:54.404Z,99.22
2017-01-23T00:35:54.377Z,99.79
2017-01-23T00:36:54.354Z,99.69
2017-01-23T00:37:54.326Z,99.32
2017-01-23T00:38:54.301Z,99.41
2017-01-23T00:39:54.276Z,99.41
2017-01-23T00:40:54.248Z,99.51
2017-01-23T00:41:54.217Z,98.94
2017-01-23T00:42:54.192Z,98.84
2017-01-23T00:43:54.563Z,98.65
2017-01-23T00:44:54.136Z,99.88
2017-01-23T00:45:54.111Z,99.41
2017-01-23T00:46:54.080Z,99.51
2017-01-23T00:47:54.055Z,99.51
2017-01-23T00:48:54.058Z,99.69
2017-01-23T00:49:54.003Z,99.69
2017-01-23T00:50:53.976Z,99.6
2017-01-23T00:51:53.950Z,99.6
2017-01-23T00:52:53.921Z,99.88
2017-01-23T00:53:53.897Z,98.75
2017-01-23T00:54:53.867Z,99.41
2017-01-23T00:55:53.839Z,99.51
2017-01-23T00:56:53.814Z,99.41
2017-01-23T00:57:53.790Z,98.94
2017-01-23T00:58:53.767Z,99.51
2017-01-23T00:59:53.732Z,99.6
2017-01-23T01:00:53.714Z,99.69
2017-01-23T01:01:53.677Z,99.69
2017-01-23T01:02:53.672Z,99.69
2017-01-23T01:03:53.622Z,99.51
2017-01-23T01:04:53.600Z,99.41
2017-01-23T01:05:53.569Z,99.6
2017-01-23T01:06:53.545Z,99.6
2017-01-23T01:07:53.515Z,99.41
2017-01-23T01:08:53.497Z,99.22
2017-01-23T01:09:53.463Z,99.6
2017-01-23T01:10:53.432Z,99.41
2017-01-23T01:11:53.413Z,99.41
2017-01-23T01:12:53.381Z,99.69
2017-01-23T01:13:53.353Z,99.69
2017-01-23T01:14:53.325Z,99.6
2017-01-23T01:15:53.300Z,99.69
2017-01-23T01:16:53.274Z,99.41
2017-01-23T01:17:53.246Z,99.79
2017-01-23T01:18:53.219Z,99.6
2017-01-23T01:19:53.193Z,99.98
2017-01-23T01:20:53.162Z,99.99
2017-01-23T01:21:53.140Z,99.79
2017-01-23T01:22:53.112Z,99.79
2017-01-23T01:23:53.087Z,99.6
2017-01-23T01:24:53.054Z,99.98
2017-01-23T01:25:53.029Z,99.98
2017-01-23T01:26:53.003Z,99.99
2017-01-23T01:27:53.002Z,99.79
2017-01-23T01:28:52.950Z,99.98
2017-01-23T01:29:52.920Z,99.88
2017-01-23T01:30:52.897Z,99.98
2017-01-23T01:31:52.870Z,99.98
2017-01-23T01:32:52.839Z,99.99
2017-01-23T01:33:52.813Z,99.41
2017-01-23T01:34:52.785Z,99.69
2017-01-23T01:35:52.763Z,99.69
2017-01-23T01:36:52.732Z,99.51
2017-01-23T01:37:52.716Z,99.22
2017-01-23T01:38:52.679Z,99.88
2017-01-23T01:39:52.653Z,99.69
2017-01-23T01:40:52.622Z,99.69
2017-01-23T01:41:52.599Z,99.69
2017-01-23T01:42:52.590Z,99.69
2017-01-23T01:43:52.543Z,99.41
2017-01-23T01:44:52.515Z,99.22
2017-01-23T01:45:52.489Z,99.6
2017-01-23T01:46:52.461Z,99.6
2017-01-23T01:47:52.433Z,99.69
2017-01-23T01:48:52.405Z,99.69
2017-01-23T01:49:52.380Z,99.41
2017-01-23T01:50:52.352Z,99.41
2017-01-23T01:51:52.351Z,99.6
2017-01-23T01:52:52.302Z,99.41
2017-01-23T01:53:52.473Z,99.99
2017-01-23T01:54:52.242Z,99.55
2017-01-23T01:55:52.219Z,99.36
2017-01-23T01:56:52.191Z,99.41
2017-01-23T01:57:52.162Z,99.26
2017-01-23T01:58:52.141Z,99.26
2017-01-23T01:59:52.112Z,99.22
2017-01-23T02:00:52.077Z,99.55
2017-01-23T02:01:52.053Z,99.36
2017-01-23T02:02:52.037Z,99.41
2017-01-23T02:03:51.997Z,99.36
2017-01-23T02:04:51.973Z,99.83
2017-01-23T02:05:51.943Z,99.74
2017-01-23T02:06:51.915Z,99.55
2017-01-23T02:07:51.895Z,99.83
2017-01-23T02:08:51.860Z,99.55
2017-01-23T02:09:51.832Z,99.64
2017-01-23T02:10:51.807Z,99.64
2017-01-23T02:11:51.778Z,99.74
2017-01-23T02:12:51.750Z,99.55
2017-01-23T02:13:51.722Z,99.55
2017-01-23T02:14:51.697Z,99.74
2017-01-23T02:15:51.671Z,99.74
2017-01-23T02:16:51.644Z,99.55
2017-01-23T02:17:51.619Z,99.99
2017-01-23T02:18:51.588Z,99.99
2017-01-23T02:19:51.561Z,99.99
2017-01-23T02:20:51.533Z,99.99
2017-01-23T02:21:51.556Z,99.74
2017-01-23T02:22:51.477Z,99.99
2017-01-23T02:23:51.449Z,99.99
2017-01-23T02:24:51.427Z,99.45
2017-01-23T02:25:51.403Z,99.64
2017-01-23T02:26:51.373Z,99.99
2017-01-23T02:27:51.739Z,99.74
2017-01-23T02:28:51.314Z,99.74
2017-01-23T02:29:51.291Z,99.17
2017-01-23T02:30:51.259Z,98.79
2017-01-23T02:31:51.236Z,98.98
2017-01-23T02:32:51.209Z,99.64
2017-01-23T02:33:51.181Z,99.36
2017-01-23T02:34:51.155Z,99.55
2017-01-23T02:35:51.122Z,99.26
2017-01-23T02:36:51.102Z,98.7
2017-01-23T02:37:51.067Z,98.7
2017-01-23T02:38:51.042Z,98.79
2017-01-23T02:39:51.017Z,98.6
2017-01-23T02:40:50.992Z,99.64
2017-01-23T02:41:50.957Z,99.74
2017-01-23T02:42:50.936Z,99.64
2017-01-23T02:43:50.901Z,99.36
2017-01-23T02:44:50.877Z,99.55
2017-01-23T02:45:50.850Z,99.64
2017-01-23T02:46:50.825Z,99.45
2017-01-23T02:47:50.795Z,99.83
2017-01-23T02:48:50.765Z,99.36
2017-01-23T02:49:50.738Z,99.55
2017-01-23T02:50:51.109Z,99.55
2017-01-23T02:51:50.688Z,99.36
2017-01-23T02:52:50.657Z,99.55
2017-01-23T02:53:50.630Z,99.36
2017-01-23T02:54:50.603Z,99.36
2017-01-23T02:55:50.577Z,99.55
2017-01-23T02:56:50.563Z,99.93
2017-01-23T02:57:50.519Z,99.74
2017-01-23T02:58:50.491Z,99.93
2017-01-23T02:59:50.464Z,99.74
2017-01-23T03:00:50.439Z,99.26
2017-01-23T03:01:50.417Z,99.55
2017-01-23T03:02:50.386Z,99.08
2017-01-23T03:03:50.358Z,98.89
2017-01-23T03:04:50.328Z,98.79
2017-01-23T03:05:50.327Z,98.79
2017-01-23T03:06:50.284Z,99.64
2017-01-23T03:07:50.245Z,99.55
2017-01-23T03:08:50.223Z,99.64
2017-01-23T03:09:50.196Z,99.55
2017-01-23T03:10:50.166Z,99.36
2017-01-23T03:11:50.137Z,99.64
2017-01-23T03:12:50.108Z,99.08
2017-01-23T03:13:50.133Z,99.36
2017-01-23T03:14:50.057Z,99.45
2017-01-23T03:15:50.031Z,99.99
2017-01-23T03:16:50.005Z,99.93
2017-01-23T03:17:49.973Z,99.93
2017-01-23T03:18:49.946Z,99.55
2017-01-23T03:19:49.918Z,99.64
2017-01-23T03:20:49.892Z,99.99
2017-01-23T03:21:49.862Z,99.99
2017-01-23T03:22:49.837Z,99.93
2017-01-23T03:23:49.809Z,99.64
2017-01-23T03:24:49.783Z,99.99
2017-01-23T03:25:49.757Z,99.99
2017-01-23T03:26:49.727Z,99.99
2017-01-23T03:27:49.703Z,99.99
2017-01-23T03:28:49.672Z,99.99
2017-01-23T03:29:49.647Z,99.99
2017-01-23T03:30:49.620Z,99.99
2017-01-23T03:31:49.618Z,99.99
2017-01-23T03:32:49.563Z,99.99
2017-01-23T03:33:49.535Z,99.99
2017-01-23T03:34:49.517Z,99.74
2017-01-23T03:35:49.478Z,99.74
2017-01-23T03:36:49.456Z,99.45
2017-01-23T03:37:49.425Z,99.99
2017-01-23T03:38:49.397Z,99.64
2017-01-23T03:39:49.371Z,99.99
2017-01-23T03:40:49.342Z,99.99
2017-01-23T03:41:49.317Z,99.99
2017-01-23T03:42:49.290Z,99.99
2017-01-23T03:43:49.257Z,99.99
2017-01-23T03:44:49.233Z,99.99
2017-01-23T03:45:49.203Z,99.99
2017-01-23T03:46:49.177Z,99.99
2017-01-23T03:47:49.152Z,99.99
2017-01-23T03:48:49.120Z,99.99
2017-01-23T03:49:49.093Z,99.99
2017-01-23T03:50:49.069Z,99.99
2017-01-23T03:51:49.046Z,99.99
2017-01-23T03:52:49.034Z,99.93
2017-01-23T03:53:49.200Z,99.93
2017-01-23T03:54:48.982Z,99.99
2017-01-23T03:55:48.965Z,99.99
2017-01-23T03:56:48.904Z,99.99
2017-01-23T03:57:48.899Z,99.99
2017-01-23T03:58:48.846Z,99.99
2017-01-23T03:59:48.820Z,99.99
2017-01-23T04:00:48.826Z,99.99
2017-01-23T04:01:48.767Z,99.99
2017-01-23T04:02:48.742Z,99.99
2017-01-23T04:03:48.709Z,99.99
2017-01-23T04:04:48.681Z,99.99
2017-01-23T04:05:48.651Z,99.99
2017-01-23T04:06:48.626Z,99.99
2017-01-23T04:07:48.598Z,99.99
2017-01-23T04:08:48.569Z,99.99
2017-01-23T04:09:48.540Z,99.99
2017-01-23T04:10:48.516Z,99.99
2017-01-23T04:11:48.489Z,99.99
2017-01-23T04:12:48.459Z,99.99
2017-01-23T04:13:48.487Z,99.99
2017-01-23T04:14:48.401Z,99.99
2017-01-23T04:15:48.377Z,99.99
2017-01-23T04:16:48.350Z,99.99
2017-01-23T04:17:48.316Z,99.99
2017-01-23T04:18:48.294Z,99.99
2017-01-23T04:19:48.266Z,99.99
2017-01-23T04:20:48.236Z,99.99
2017-01-23T04:21:48.207Z,99.93
2017-01-23T04:22:48.179Z,99.99
2017-01-23T04:23:48.151Z,99.99
2017-01-23T04:24:48.129Z,99.99
2017-01-23T04:25:48.101Z,99.93
2017-01-23T04:26:48.089Z,99.99
2017-01-23T04:27:48.044Z,99.36
2017-01-23T04:28:48.015Z,99.17
2017-01-23T04:29:47.986Z,99.36
2017-01-23T04:30:47.955Z,99.36
2017-01-23T04:31:47.928Z,99.74
2017-01-23T04:32:47.902Z,99.55
2017-01-23T04:33:47.935Z,99.45
2017-01-23T04:34:47.844Z,99.55
2017-01-23T04:35:47.823Z,99.55
2017-01-23T04:36:47.790Z,99.64
2017-01-23T04:37:47.797Z,99.26
2017-01-23T04:38:47.730Z,99.45
2017-01-23T04:39:47.704Z,99.74
2017-01-23T04:40:47.682Z,99.83
2017-01-23T04:41:47.648Z,99.83
2017-01-23T04:42:47.622Z,99.83
2017-01-23T04:43:47.594Z,99.45
2017-01-23T04:44:47.593Z,99.55
2017-01-23T04:45:47.539Z,98.79
2017-01-23T04:46:47.509Z,98.04
2017-01-23T04:47:47.478Z,98.51
2017-01-23T04:48:47.451Z,98.04
2017-01-23T04:49:47.427Z,97.28
2017-01-23T04:50:47.394Z,97.09
2017-01-23T04:51:47.366Z,97.38
2017-01-23T04:52:47.350Z,96.34
2017-01-23T04:53:47.312Z,95.68
2017-01-23T04:54:47.286Z,95.68
2017-01-23T04:55:47.255Z,95.5
2017-01-23T04:56:47.237Z,95.78
2017-01-23T04:57:47.196Z,94.93
2017-01-23T04:58:47.170Z,95.17
2017-01-23T04:59:47.140Z,94.98
2017-01-23T05:00:47.115Z,94.79
2017-01-23T05:01:47.087Z,94.6
2017-01-23T05:02:47.059Z,95.26
2017-01-23T05:03:47.028Z,95.36
2017-01-23T05:04:47.004Z,95.17
2017-01-23T05:05:46.982Z,95.17
2017-01-23T05:06:46.950Z,95.45
2017-01-23T05:07:46.921Z,95.64
2017-01-23T05:08:46.894Z,95.45
2017-01-23T05:09:46.866Z,95.54
2017-01-23T05:10:46.840Z,94.98
2017-01-23T05:11:46.813Z,95.17
2017-01-23T05:12:46.784Z,94.6
2017-01-23T05:13:46.784Z,94.51
2017-01-23T05:14:46.730Z,94.69
2017-01-23T05:15:46.700Z,94.32
2017-01-23T05:16:46.672Z,94.41
2017-01-23T05:17:46.649Z,93.94
2017-01-23T05:18:46.617Z,94.51
2017-01-23T05:19:46.596Z,94.13
2017-01-23T05:20:46.591Z,94.03
2017-01-23T05:21:46.542Z,94.03
2017-01-23T05:22:46.518Z,93.37
2017-01-23T05:23:46.480Z,93.47
2017-01-23T05:24:46.464Z,93.09
2017-01-23T05:25:46.455Z,93.18
2017-01-23T05:26:46.397Z,92.33
2017-01-23T05:27:46.371Z,92.52
2017-01-23T05:28:46.350Z,92.43
2017-01-23T05:29:46.318Z,91.77
2017-01-23T05:30:46.292Z,91.96
2017-01-23T05:31:46.263Z,92.05
2017-01-23T05:32:46.239Z,91.96
2017-01-23T05:33:46.209Z,91.58
2017-01-23T05:34:46.180Z,91.58
2017-01-23T05:35:46.157Z,91.77
2017-01-23T05:36:46.128Z,91.49
2017-01-23T05:37:46.103Z,91.39
2017-01-23T05:38:46.071Z,91.58
2017-01-23T05:39:46.048Z,91.58
2017-01-23T05:40:46.026Z,91.39
2017-01-23T05:41:45.993Z,91.58
2017-01-23T05:42:46.001Z,91.58
2017-01-23T05:43:45.939Z,91.67
2017-01-23T05:44:45.910Z,91.3
2017-01-23T05:45:45.888Z,91.02
2017-01-23T05:46:45.860Z,91.02
2017-01-23T05:47:45.836Z,91.2
2017-01-23T05:48:45.799Z,90.64
2017-01-23T05:49:45.776Z,90.83
2017-01-23T05:50:45.752Z,91.2
2017-01-23T05:51:45.727Z,91.2
2017-01-23T05:52:45.696Z,91.39
2017-01-23T05:53:45.873Z,91.2
2017-01-23T05:54:45.639Z,91.11
2017-01-23T05:55:45.647Z,91.11
2017-01-23T05:56:45.588Z,90.92
2017-01-23T05:57:45.560Z,91.11
2017-01-23T05:58:45.532Z,90.83
2017-01-23T05:59:45.504Z,90.83
2017-01-23T06:00:45.484Z,91.02
2017-01-23T06:01:45.475Z,91.2
2017-01-23T06:02:45.425Z,91.02
2017-01-23T06:03:45.405Z,90.92
2017-01-23T06:04:45.372Z,90.83
2017-01-23T06:05:45.357Z,91.11
2017-01-23T06:06:45.339Z,91.11
2017-01-23T06:07:45.293Z,91.02
2017-01-23T06:08:45.270Z,91.49
2017-01-23T06:09:45.238Z,91.2
2017-01-23T06:10:45.216Z,91.2
2017-01-23T06:11:45.188Z,91.39
2017-01-23T06:12:45.162Z,91.2
2017-01-23T06:13:45.134Z,91.2
2017-01-23T06:14:45.111Z,91.39
2017-01-23T06:15:45.081Z,91.3
2017-01-23T06:16:45.054Z,91.3
2017-01-23T06:17:45.031Z,91.3
2017-01-23T06:18:45.002Z,91.3
2017-01-23T06:19:44.978Z,91.49
2017-01-23T06:20:44.949Z,91.2
2017-01-23T06:21:44.920Z,91.3
2017-01-23T06:22:44.893Z,91.3
2017-01-23T06:23:44.869Z,90.92
2017-01-23T06:24:44.840Z,90.83
2017-01-23T06:25:45.210Z,91.11
2017-01-23T06:26:44.790Z,90.73
2017-01-23T06:27:44.763Z,91.2
2017-01-23T06:28:44.738Z,91.02
2017-01-23T06:29:44.717Z,90.64
2017-01-23T06:30:44.685Z,90.45
2017-01-23T06:31:44.658Z,90.73
2017-01-23T06:32:44.631Z,90.55
2017-01-23T06:33:44.607Z,90.45
2017-01-23T06:34:44.582Z,90.36
2017-01-23T06:35:44.553Z,90.64
2017-01-23T06:36:44.525Z,90.64
2017-01-23T06:37:44.496Z,90.36
2017-01-23T06:38:44.474Z,90.07
2017-01-23T06:39:44.448Z,90.07
2017-01-23T06:40:44.418Z,89.98
2017-01-23T06:41:44.393Z,89.98
2017-01-23T06:42:44.368Z,90.07
2017-01-23T06:43:44.337Z,89.88
2017-01-23T06:44:44.312Z,89.6
2017-01-23T06:45:44.288Z,89.98
2017-01-23T06:46:44.263Z,90.17
2017-01-23T06:47:44.234Z,90.07
2017-01-23T06:48:44.207Z,89.98
2017-01-23T06:49:44.182Z,89.98
2017-01-23T06:50:44.165Z,89.88
2017-01-23T06:51:44.135Z,90.07
2017-01-23T06:52:44.103Z,89.79
2017-01-23T06:53:44.073Z,89.13
2017-01-23T06:54:44.050Z,89.6
2017-01-23T06:55:44.024Z,90.02
2017-01-23T06:56:43.996Z,90.17
2017-01-23T06:57:43.972Z,89.69
2017-01-23T06:58:43.941Z,89.69
2017-01-23T06:59:43.917Z,89.69
2017-01-23T07:00:43.891Z,89.41
2017-01-23T07:01:43.865Z,89.74
2017-01-23T07:02:44.235Z,89.41
2017-01-23T07:03:43.812Z,89.45
2017-01-23T07:04:43.786Z,89.55
2017-01-23T07:05:43.758Z,89.27
2017-01-23T07:06:43.764Z,89.45
2017-01-23T07:07:43.710Z,89.36
2017-01-23T07:08:43.679Z,89.36
2017-01-23T07:09:43.653Z,89.64
2017-01-23T07:10:43.627Z,88.98
2017-01-23T07:11:43.600Z,88.79
2017-01-23T07:12:43.572Z,89.27
2017-01-23T07:13:43.551Z,88.89
2017-01-23T07:14:43.521Z,88.89
2017-01-23T07:15:43.497Z,88.51
2017-01-23T07:16:43.549Z,88.42
2017-01-23T07:17:43.445Z,88.6
2017-01-23T07:18:43.416Z,88.23
2017-01-23T07:19:43.401Z,88.51
2017-01-23T07:20:43.364Z,88.6
2017-01-23T07:21:43.343Z,88.42
2017-01-23T07:22:43.307Z,88.42
2017-01-23T07:23:43.288Z,87.76
2017-01-23T07:24:43.258Z,88.6
2017-01-23T07:25:43.239Z,88.42
2017-01-23T07:26:43.208Z,87.85
2017-01-23T07:27:43.178Z,87.66
2017-01-23T07:28:43.553Z,87.85
2017-01-23T07:29:43.128Z,87.95
2017-01-23T07:30:43.099Z,87.85
2017-01-23T07:31:43.074Z,87.95
2017-01-23T07:32:43.050Z,87.38
2017-01-23T07:33:43.020Z,87.95
2017-01-23T07:34:43.000Z,87.38
2017-01-23T07:35:42.967Z,87.85
2017-01-23T07:36:42.949Z,87.85
2017-01-23T07:37:42.920Z,88.04
2017-01-23T07:38:42.890Z,88.13
2017-01-23T07:39:42.863Z,87.85
2017-01-23T07:40:42.842Z,87.85
2017-01-23T07:41:42.812Z,87.85
2017-01-23T07:42:42.784Z,87.76
2017-01-23T07:43:42.764Z,88.04
2017-01-23T07:44:42.730Z,88.04
2017-01-23T07:45:42.710Z,87.85
2017-01-23T07:46:42.682Z,87.76
2017-01-23T07:47:42.660Z,87.95
2017-01-23T07:48:42.629Z,87.29
2017-01-23T07:49:42.603Z,87.29
2017-01-23T07:50:42.581Z,87.48
2017-01-23T07:51:42.551Z,87.66
2017-01-23T07:52:42.528Z,86.91
2017-01-23T07:53:42.730Z,87.1
2017-01-23T07:54:42.477Z,87.19
2017-01-23T07:55:42.574Z,87.29
2017-01-23T07:56:42.829Z,86.72
2017-01-23T07:57:42.404Z,87.1
2017-01-23T07:58:42.371Z,86.91
2017-01-23T07:59:42.354Z,86.82
2017-01-23T08:00:42.322Z,86.72
2017-01-23T08:01:42.304Z,86.82
2017-01-23T08:02:42.267Z,85.96
2017-01-23T08:03:42.247Z,86.44
2017-01-23T08:04:42.216Z,86.06
2017-01-23T08:05:42.196Z,86.25
2017-01-23T08:06:42.202Z,86.25
2017-01-23T08:07:42.141Z,86.15
2017-01-23T08:08:42.113Z,86.15
2017-01-23T08:09:42.087Z,86.34
2017-01-23T08:10:42.064Z,85.87
2017-01-23T08:11:42.041Z,86.34
2017-01-23T08:12:42.011Z,86.15
2017-01-23T08:13:41.985Z,86.15
2017-01-23T08:14:41.963Z,86.15
2017-01-23T08:15:41.935Z,86.34
2017-01-23T08:16:41.909Z,86.06
2017-01-23T08:17:41.896Z,86.25
2017-01-23T08:18:41.858Z,86.06
2017-01-23T08:19:41.835Z,85.96
2017-01-23T08:20:41.807Z,86.06
2017-01-23T08:21:41.780Z,85.68
2017-01-23T08:22:41.757Z,85.96
2017-01-23T08:23:41.730Z,85.87
2017-01-23T08:24:41.702Z,86.15
2017-01-23T08:25:41.714Z,86.25
2017-01-23T08:26:41.661Z,86.15
2017-01-23T08:27:41.627Z,85.91
2017-01-23T08:28:41.607Z,86.57
2017-01-23T08:29:41.578Z,86.48
2017-01-23T08:30:41.554Z,86.34
2017-01-23T08:31:41.529Z,86.15
2017-01-23T08:32:41.501Z,86.48
2017-01-23T08:33:41.475Z,86.53
2017-01-23T08:34:41.451Z,86.63
2017-01-23T08:35:41.428Z,86.06
2017-01-23T08:36:41.399Z,86.44
2017-01-23T08:37:41.382Z,86.34
2017-01-23T08:38:41.357Z,86.25
2017-01-23T08:39:41.338Z,86.48
2017-01-23T08:40:41.303Z,86.48
2017-01-23T08:41:41.286Z,86.38
2017-01-23T08:42:41.255Z,86.29
2017-01-23T08:43:41.222Z,86.38
2017-01-23T08:44:41.195Z,86.29
2017-01-23T08:45:41.173Z,86.19
2017-01-23T08:46:41.145Z,86.19
2017-01-23T08:47:41.120Z,86.29
2017-01-23T08:48:41.096Z,86.01
2017-01-23T08:49:41.070Z,86.1
2017-01-23T08:50:41.044Z,86.29
2017-01-23T08:51:41.019Z,86.38
2017-01-23T08:52:40.994Z,86.38
2017-01-23T08:53:40.967Z,86.29
2017-01-23T08:54:40.948Z,86.29
2017-01-23T08:55:40.930Z,86.29
2017-01-23T08:56:40.893Z,86.48
2017-01-23T08:57:40.872Z,86.29
2017-01-23T08:58:40.842Z,86.01
2017-01-23T08:59:40.815Z,85.72
2017-01-23T09:00:40.794Z,86.1
2017-01-23T09:01:40.770Z,86.29
2017-01-23T09:02:40.741Z,86.01
2017-01-23T09:03:40.716Z,85.91
2017-01-23T09:04:40.692Z,85.63
2017-01-23T09:05:40.669Z,85.16
2017-01-23T09:06:40.639Z,85.72
2017-01-23T09:07:40.616Z,85.91
2017-01-23T09:08:40.588Z,85.91
2017-01-23T09:09:40.564Z,86.1
2017-01-23T09:10:40.538Z,85.72
2017-01-23T09:11:40.513Z,85.91
2017-01-23T09:12:40.490Z,86.19
2017-01-23T09:13:40.461Z,86.29
2017-01-23T09:14:40.442Z,85.91
2017-01-23T09:15:40.434Z,85.91
2017-01-23T09:16:40.389Z,85.44
2017-01-23T09:17:40.364Z,86.1
2017-01-23T09:18:40.339Z,85.35
2017-01-23T09:19:40.322Z,85.35
2017-01-23T09:20:40.292Z,85.44
2017-01-23T09:21:40.265Z,85.63
2017-01-23T09:22:40.240Z,85.82
2017-01-23T09:23:40.214Z,85.53
2017-01-23T09:24:40.190Z,85.25
2017-01-23T09:25:40.168Z,85.06
2017-01-23T09:26:40.139Z,85.16
2017-01-23T09:27:40.144Z,85.16
2017-01-23T09:28:40.099Z,85.44
2017-01-23T09:29:40.064Z,85.25
2017-01-23T09:30:40.465Z,85.35
2017-01-23T09:31:40.024Z,85.35
2017-01-23T09:32:40.031Z,84.97
2017-01-23T09:33:39.969Z,85.91
2017-01-23T09:34:39.942Z,85.53
2017-01-23T09:35:39.918Z,85.63
2017-01-23T09:36:39.894Z,85.72
2017-01-23T09:37:39.867Z,85.63
2017-01-23T09:38:39.841Z,85.72
2017-01-23T09:39:39.818Z,85.72
2017-01-23T09:40:39.796Z,85.82
2017-01-23T09:41:39.766Z,85.82
2017-01-23T09:42:39.772Z,85.82
2017-01-23T09:43:39.719Z,85.82
2017-01-23T09:44:39.700Z,86.1
2017-01-23T09:45:39.671Z,86.01
2017-01-23T09:46:40.052Z,85.72
2017-01-23T09:47:39.621Z,85.91
2017-01-23T09:48:39.598Z,86.1
2017-01-23T09:49:39.583Z,86.29
2017-01-23T09:50:39.552Z,86.29
2017-01-23T09:51:39.525Z,85.91
2017-01-23T09:52:39.499Z,86.38
2017-01-23T09:53:39.693Z,86.57
2017-01-23T09:54:39.453Z,86.48
2017-01-23T09:55:39.427Z,86.57
2017-01-23T09:56:39.411Z,86.48
2017-01-23T09:57:39.383Z,86.29
2017-01-23T09:58:39.355Z,86.48
2017-01-23T09:59:39.328Z,86.48
2017-01-23T10:00:39.317Z,86.76
2017-01-23T10:01:39.285Z,86.67
2017-01-23T10:02:39.294Z,86.95
2017-01-23T10:03:39.237Z,87.14
2017-01-23T10:04:39.237Z,87.14
2017-01-23T10:05:39.185Z,87.8
2017-01-23T10:06:39.159Z,87.71
2017-01-23T10:07:39.140Z,87.43
2017-01-23T10:08:39.113Z,87.52
2017-01-23T10:09:39.093Z,88.09
2017-01-23T10:10:39.066Z,87.33
2017-01-23T10:11:39.042Z,87.43
2017-01-23T10:12:39.014Z,88.09
2017-01-23T10:13:39.001Z,88.09
2017-01-23T10:14:38.967Z,87.99
2017-01-23T10:15:38.946Z,87.9
2017-01-23T10:16:38.919Z,88.09
2017-01-23T10:17:38.895Z,88.09
2017-01-23T10:18:38.868Z,88.32
2017-01-23T10:19:38.845Z,87.66
2017-01-23T10:20:38.850Z,87.56
2017-01-23T10:21:38.798Z,87.56
2017-01-23T10:22:38.779Z,87.56
2017-01-23T10:23:38.752Z,87.47
2017-01-23T10:24:38.727Z,87.66
2017-01-23T10:25:38.705Z,87.75
2017-01-23T10:26:38.681Z,88.13
2017-01-23T10:27:38.656Z,88.09
2017-01-23T10:28:38.638Z,87.52
2017-01-23T10:29:38.614Z,87.37
2017-01-23T10:30:38.597Z,86.62
2017-01-23T10:31:38.560Z,86.9
2017-01-23T10:32:38.535Z,87.09
2017-01-23T10:33:38.514Z,87.18
2017-01-23T10:34:38.485Z,86.8
2017-01-23T10:35:38.467Z,86.71
2017-01-23T10:36:38.439Z,86.33
2017-01-23T10:37:38.414Z,86.33
2017-01-23T10:38:38.392Z,86.62
2017-01-23T10:39:38.371Z,86.52
2017-01-23T10:40:38.345Z,86.43
2017-01-23T10:41:38.323Z,86.52
2017-01-23T10:42:38.297Z,86.33
2017-01-23T10:43:38.270Z,86.15
2017-01-23T10:44:38.248Z,86.15
2017-01-23T10:45:38.237Z,85.96
2017-01-23T10:46:38.201Z,85.77
2017-01-23T10:47:38.178Z,85.2
2017-01-23T10:48:38.152Z,85.3
2017-01-23T10:49:38.142Z,85.3
2017-01-23T10:50:38.104Z,85.49
2017-01-23T10:51:38.085Z,85.49
2017-01-23T10:52:38.060Z,85.39
2017-01-23T10:53:38.044Z,85.49
2017-01-23T10:54:38.018Z,85.39
2017-01-23T10:55:37.994Z,85.58
2017-01-23T10:56:37.970Z,85.68
2017-01-23T10:57:37.942Z,84.82
2017-01-23T10:58:37.920Z,85.01
2017-01-23T10:59:37.891Z,84.82
2017-01-23T11:00:37.867Z,85.58
2017-01-23T11:01:37.842Z,85.49
2017-01-23T11:02:37.824Z,85.39
2017-01-23T11:03:37.800Z,85.58
2017-01-23T11:04:37.775Z,85.77
2017-01-23T11:05:37.768Z,85.49
2017-01-23T11:06:37.725Z,85.39
2017-01-23T11:07:37.701Z,85.77
2017-01-23T11:08:37.679Z,86.33
2017-01-23T11:09:37.706Z,86.15
2017-01-23T11:10:37.636Z,85.86
2017-01-23T11:11:37.612Z,85.86
2017-01-23T11:12:37.587Z,85.58
2017-01-23T11:13:37.563Z,85.68
2017-01-23T11:14:37.538Z,85.39
2017-01-23T11:15:37.521Z,85.58
2017-01-23T11:16:37.492Z,85.49
2017-01-23T11:17:37.471Z,85.58
2017-01-23T11:18:37.446Z,85.2
2017-01-23T11:19:37.420Z,84.73
2017-01-23T11:20:37.396Z,85.3
2017-01-23T11:21:37.379Z,85.49
2017-01-23T11:22:37.406Z,85.49
2017-01-23T11:23:37.326Z,85.3
2017-01-23T11:24:37.300Z,85.11
2017-01-23T11:25:37.281Z,85.68
2017-01-23T11:26:37.255Z,85.86
2017-01-23T11:27:37.237Z,85.86
2017-01-23T11:28:37.210Z,85.86
2017-01-23T11:29:37.192Z,85.86
2017-01-23T11:30:37.187Z,86.33
2017-01-23T11:31:37.145Z,86.52
2017-01-23T11:32:37.117Z,86.33
2017-01-23T11:33:37.095Z,86.24
2017-01-23T11:34:37.070Z,86.15
2017-01-23T11:35:37.049Z,85.86
2017-01-23T11:36:37.024Z,85.77
2017-01-23T11:37:37.000Z,85.86
2017-01-23T11:38:36.978Z,85.49
2017-01-23T11:39:36.957Z,85.58
2017-01-23T11:40:36.931Z,85.39
2017-01-23T11:41:36.907Z,85.86
2017-01-23T11:42:36.886Z,86.33
2017-01-23T11:43:36.860Z,86.33
2017-01-23T11:44:36.835Z,86.15
2017-01-23T11:45:36.821Z,86.24
2017-01-23T11:46:36.793Z,86.29
2017-01-23T11:47:36.775Z,86.43
2017-01-23T11:48:36.746Z,86.66
2017-01-23T11:49:36.723Z,86.57
2017-01-23T11:50:36.697Z,86.76
2017-01-23T11:51:36.677Z,86.57
2017-01-23T11:52:36.651Z,86.66
2017-01-23T11:53:36.629Z,86.47
2017-01-23T11:54:36.816Z,86.57
2017-01-23T11:55:36.586Z,86.76
2017-01-23T11:56:36.561Z,86.47
2017-01-23T11:57:36.540Z,86.57
2017-01-23T11:58:36.519Z,87.13
2017-01-23T11:59:36.500Z,86.85
2017-01-23T12:00:36.469Z,87.42
2017-01-23T12:01:36.449Z,86.94
2017-01-23T12:02:36.428Z,87.04
2017-01-23T12:03:36.402Z,87.61
2017-01-23T12:04:36.385Z,87.51
2017-01-23T12:05:36.358Z,87.61
2017-01-23T12:06:36.338Z,88.27
2017-01-23T12:07:36.312Z,88.55
2017-01-23T12:08:36.286Z,88.93
2017-01-23T12:09:36.265Z,88.74
2017-01-23T12:10:36.242Z,89.03
2017-01-23T12:11:36.215Z,89.4
2017-01-23T12:12:36.192Z,89.03
2017-01-23T12:13:36.170Z,89.31
2017-01-23T12:14:36.201Z,89.78
2017-01-23T12:15:36.140Z,89.97
2017-01-23T12:16:36.109Z,90.06
2017-01-23T12:17:36.490Z,89.5
2017-01-23T12:18:36.057Z,89.22
2017-01-23T12:19:36.037Z,89.31
2017-01-23T12:20:36.016Z,89.12
2017-01-23T12:21:35.994Z,88.74
2017-01-23T12:22:35.971Z,88.93
2017-01-23T12:23:35.945Z,88.84
2017-01-23T12:24:35.927Z,88.93
2017-01-23T12:25:35.906Z,88.93
2017-01-23T12:26:35.875Z,88.93
2017-01-23T12:27:35.856Z,89.22
2017-01-23T12:28:35.834Z,89.12
2017-01-23T12:29:35.811Z,89.5
2017-01-23T12:30:35.787Z,90.44
2017-01-23T12:31:35.766Z,90.35
2017-01-23T12:32:35.742Z,90.35
2017-01-23T12:33:35.717Z,89.78
2017-01-23T12:34:35.698Z,90.16
2017-01-23T12:35:35.673Z,89.87
2017-01-23T12:36:35.663Z,90.44
2017-01-23T12:37:35.630Z,90.91
2017-01-23T12:38:35.606Z,91.1
2017-01-23T12:39:35.587Z,91.29
2017-01-23T12:40:35.558Z,91.1
2017-01-23T12:41:35.559Z,91.2
2017-01-23T12:42:35.515Z,91.1
2017-01-23T12:43:35.493Z,92.43
2017-01-23T12:44:35.473Z,92.8
2017-01-23T12:45:35.446Z,92.52
2017-01-23T12:46:35.424Z,92.52
2017-01-23T12:47:35.446Z,92.43
2017-01-23T12:48:35.384Z,91.67
2017-01-23T12:49:35.364Z,91.86
2017-01-23T12:50:35.355Z,91.96
2017-01-23T12:51:35.319Z,92.33
2017-01-23T12:52:35.290Z,92.05
2017-01-23T12:53:35.267Z,91.58
2017-01-23T12:54:35.243Z,91.67
2017-01-23T12:55:35.229Z,90.82